sensor_id;sensor_type;location;lat;lon;timestamp;pressure;altitude;pressure_sealevel;temperature;humidity
20424;BME280;10371;49.042;8.002;2023-04-08T00:00:52;100241.94;;;9.41;100.00
20424;BME280;10371;49.042;8.002;2023-04-08T00:01:52;100234.97;;;9.42;100.00
20424;BME280;10371;49.042;8.002;2023-04-08T00:02:53;100239.25;;;9.43;100.00
20424;BME280;10371;49.042;8.002;2023-04-08T00:03:53;100242.44;;;9.46;100.00
20424;BME280;10371;49.042;8.002;2023-04-08T00:04:53;100243.28;;;9.47;100.00
20424;BME280;10371;49.042;8.002;2023-04-08T00:05:54;100245.88;;;9.47;100.00
20424;BME280;10371;49.042;8.002;2023-04-08T00:06:54;100239.34;;;9.41;100.00
20424;BME280;10371;49.042;8.002;2023-04-08T00:07:55;100244.53;;;9.41;100.00
20424;BME280;10371;49.042;8.002;2023-04-08T00:08:55;100239.25;;;9.43;100.00
20424;BME280;10371;49.042;8.002;2023-04-08T00:09:56;100240.16;;;9.42;100.00
20424;BME280;10371;49.042;8.002;2023-04-08T00:10:56;100238.50;;;9.40;100.00
20424;BME280;10371;49.042;8.002;2023-04-08T00:11:56;100240.16;;;9.42;100.00
20424;BME280;10371;49.042;8.002;2023-04-08T00:12:57;100240.28;;;9.40;100.00
20424;BME280;10371;49.042;8.002;2023-04-08T00:13:57;100239.47;;;9.39;100.00
20424;BME280;10371;49.042;8.002;2023-04-08T00:14:57;100242.06;;;9.39;100.00
20424;BME280;10371;49.042;8.002;2023-04-08T00:15:57;100236.84;;;9.39;100.00
20424;BME280;10371;49.042;8.002;2023-04-08T00:16:58;100235.09;;;9.40;100.00
20424;BME280;10371;49.042;8.002;2023-04-08T00:17:58;100240.28;;;9.40;100.00
20424;BME280;10371;49.042;8.002;2023-04-08T00:18:58;100240.16;;;9.42;100.00
20424;BME280;10371;49.042;8.002;2023-04-08T00:19:59;100239.47;;;9.39;100.00
20424;BME280;10371;49.042;8.002;2023-04-08T00:20:59;100239.56;;;9.38;100.00
20424;BME280;10371;49.042;8.002;2023-04-08T00:22:01;100239.75;;;9.35;100.00
20424;BME280;10371;49.042;8.002;2023-04-08T00:23:01;100244.13;;;9.34;100.00
20424;BME280;10371;49.042;8.002;2023-04-08T00:24:01;100242.38;;;9.35;100.00
20424;BME280;10371;49.042;8.002;2023-04-08T00:25:03;100238.81;;;9.36;100.00
20424;BME280;10371;49.042;8.002;2023-04-08T00:26:05;100249.94;;;9.38;100.00
20424;BME280;10371;49.042;8.002;2023-04-08T00:27:05;100246.44;;;9.39;100.00
20424;BME280;10371;49.042;8.002;2023-04-08T00:28:06;100243.09;;;9.37;100.00
20424;BME280;10371;49.042;8.002;2023-04-08T00:29:06;100249.13;;;9.37;100.00
20424;BME280;10371;49.042;8.002;2023-04-08T00:30:07;100248.16;;;9.38;100.00
20424;BME280;10371;49.042;8.002;2023-04-08T00:31:08;100243.91;;;9.37;100.00
20424;BME280;10371;49.042;8.002;2023-04-08T00:32:08;100243.91;;;9.37;100.00
20424;BME280;10371;49.042;8.002;2023-04-08T00:33:08;100246.44;;;9.39;100.00
20424;BME280;10371;49.042;8.002;2023-04-08T00:34:09;100244.53;;;9.41;100.00
20424;BME280;10371;49.042;8.002;2023-04-08T00:35:09;100246.22;;;9.42;100.00
20424;BME280;10371;49.042;8.002;2023-04-08T00:36:09;100244.44;;;9.43;100.00
20424;BME280;10371;49.042;8.002;2023-04-08T00:37:10;100236.84;;;9.39;100.00
20424;BME280;10371;49.042;8.002;2023-04-08T00:38:10;100239.47;;;9.39;100.00
20424;BME280;10371;49.042;8.002;2023-04-08T00:39:10;100247.97;;;9.42;100.00
20424;BME280;10371;49.042;8.002;2023-04-08T00:40:11;100243.72;;;9.40;100.00
20424;BME280;10371;49.042;8.002;2023-04-08T00:41:11;100242.66;;;9.43;100.00
20424;BME280;10371;49.042;8.002;2023-04-08T00:42:12;100241.84;;;9.43;100.00
20424;BME280;10371;49.042;8.002;2023-04-08T00:43:12;100240.91;;;9.44;100.00
20424;BME280;10371;49.042;8.002;2023-04-08T00:44:12;100241.03;;;9.42;100.00
20424;BME280;10371;49.042;8.002;2023-04-08T00:45:12;100236.53;;;9.44;100.00
20424;BME280;10371;49.042;8.002;2023-04-08T00:46:13;100237.38;;;9.45;100.00
20424;BME280;10371;49.042;8.002;2023-04-08T00:47:14;100244.13;;;9.47;100.00
20424;BME280;10371;49.042;8.002;2023-04-08T00:48:15;100238.94;;;9.47;100.00
20424;BME280;10371;49.042;8.002;2023-04-08T00:49:16;100240.59;;;9.48;100.00
20424;BME280;10371;49.042;8.002;2023-04-08T00:50:17;100239.75;;;9.48;100.00
20424;BME280;10371;49.042;8.002;2023-04-08T00:51:18;100236.44;;;9.46;100.00
20424;BME280;10371;49.042;8.002;2023-04-08T00:52:18;100234.56;;;9.48;100.00
20424;BME280;10371;49.042;8.002;2023-04-08T00:53:19;100238.06;;;9.47;100.00
20424;BME280;10371;49.042;8.002;2023-04-08T00:54:19;100230.28;;;9.47;100.00
20424;BME280;10371;49.042;8.002;2023-04-08T00:55:19;100234.66;;;9.46;100.00
20424;BME280;10371;49.042;8.002;2023-04-08T00:56:21;100235.81;;;9.42;100.00
20424;BME280;10371;49.042;8.002;2023-04-08T00:57:21;100240.91;;;9.44;100.00
20424;BME280;10371;49.042;8.002;2023-04-08T00:58:22;100236.66;;;9.43;100.00
20424;BME280;10371;49.042;8.002;2023-04-08T00:59:22;100240.91;;;9.44;100.00
20424;BME280;10371;49.042;8.002;2023-04-08T01:00:22;100239.25;;;9.43;100.00
20424;BME280;10371;49.042;8.002;2023-04-08T01:01:43;100241.84;;;9.43;100.00
20424;BME280;10371;49.042;8.002;2023-04-08T01:02:58;100241.84;;;9.43;100.00
20424;BME280;10371;49.042;8.002;2023-04-08T01:04:08;100242.06;;;9.39;100.00
20424;BME280;10371;49.042;8.002;2023-04-08T01:05:27;100226.69;;;9.36;100.00
20424;BME280;10371;49.042;8.002;2023-04-08T01:06:42;100242.06;;;9.39;100.00
20424;BME280;10371;49.042;8.002;2023-04-08T01:07:47;100240.28;;;9.40;100.00
20424;BME280;10371;49.042;8.002;2023-04-08T01:08:50;100232.50;;;9.40;100.00
20424;BME280;10371;49.042;8.002;2023-04-08T01:09:54;100238.63;;;9.39;100.00
20424;BME280;10371;49.042;8.002;2023-04-08T01:10:58;100243.84;;;9.39;100.00
20424;BME280;10371;49.042;8.002;2023-04-08T01:12:03;100237.69;;;9.40;100.00
20424;BME280;10371;49.042;8.002;2023-04-08T01:13:07;100240.38;;;9.38;100.00
20424;BME280;10371;49.042;8.002;2023-04-08T01:14:11;100242.97;;;9.38;100.00
20424;BME280;10371;49.042;8.002;2023-04-08T01:15:16;100244.75;;;9.38;100.00
20424;BME280;10371;49.042;8.002;2023-04-08T01:16:17;100248.28;;;9.37;100.00
20424;BME280;10371;49.042;8.002;2023-04-08T01:17:18;100241.31;;;9.37;100.00
20424;BME280;10371;49.042;8.002;2023-04-08T01:18:20;100247.47;;;9.36;100.00
20424;BME280;10371;49.042;8.002;2023-04-08T01:19:30;100249.13;;;9.37;100.00
20424;BME280;10371;49.042;8.002;2023-04-08T01:20:30;100241.63;;;9.33;100.00
20424;BME280;10371;49.042;8.002;2023-04-08T01:21:31;100251.19;;;9.32;100.00
20424;BME280;10371;49.042;8.002;2023-04-08T01:24:05;100249.03;;;9.26;100.00
20424;BME280;10371;49.042;8.002;2023-04-08T01:25:16;100252.66;;;9.24;100.00
20424;BME280;10371;49.042;8.002;2023-04-08T01:26:23;100251.94;;;9.09;100.00
20424;BME280;10371;49.042;8.002;2023-04-08T01:27:26;100251.00;;;8.97;100.00
20424;BME280;10371;49.042;8.002;2023-04-08T01:28:29;100255.03;;;8.88;100.00
20424;BME280;10371;49.042;8.002;2023-04-08T01:29:30;100251.06;;;8.83;100.00
20424;BME280;10371;49.042;8.002;2023-04-08T01:30:32;100252.00;;;8.82;100.00
20424;BME280;10371;49.042;8.002;2023-04-08T01:31:35;100252.84;;;8.82;100.00
20424;BME280;10371;49.042;8.002;2023-04-08T01:32:37;100245.78;;;8.84;100.00
20424;BME280;10371;49.042;8.002;2023-04-08T01:33:38;100251.72;;;8.86;100.00
20424;BME280;10371;49.042;8.002;2023-04-08T01:34:39;100244.47;;;8.91;100.00
20424;BME280;10371;49.042;8.002;2023-04-08T01:35:40;100249.44;;;8.94;100.00
20424;BME280;10371;49.042;8.002;2023-04-08T01:36:43;100252.66;;;8.98;100.00
20424;BME280;10371;49.042;8.002;2023-04-08T01:37:45;100252.53;;;9.00;100.00
20424;BME280;10371;49.042;8.002;2023-04-08T01:38:47;100249.94;;;9.00;100.00
20424;BME280;10371;49.042;8.002;2023-04-08T01:39:49;100249.03;;;9.01;100.00
20424;BME280;10371;49.042;8.002;2023-04-08T01:40:50;100241.13;;;9.02;100.00
20424;BME280;10371;49.042;8.002;2023-04-08T01:41:53;100250.69;;;9.02;100.00
20424;BME280;10371;49.042;8.002;2023-04-08T01:42:55;100249.75;;;9.03;100.00
20424;BME280;10371;49.042;8.002;2023-04-08T01:43:57;100243.72;;;9.02;100.00
20424;BME280;10371;49.042;8.002;2023-04-08T01:44:58;100247.16;;;9.03;100.00
20424;BME280;10371;49.042;8.002;2023-04-08T01:45:58;100244.44;;;9.04;100.00
20424;BME280;10371;49.042;8.002;2023-04-08T01:47:00;100243.63;;;9.04;100.00
20424;BME280;10371;49.042;8.002;2023-04-08T01:48:02;100247.03;;;9.04;100.00
20424;BME280;10371;49.042;8.002;2023-04-08T01:49:04;100242.69;;;9.05;100.00
20424;BME280;10371;49.042;8.002;2023-04-08T01:50:06;100247.88;;;9.05;100.00
20424;BME280;10371;49.042;8.002;2023-04-08T01:51:08;100242.81;;;9.03;100.00
20424;BME280;10371;49.042;8.002;2023-04-08T01:52:09;100244.34;;;9.06;100.00
20424;BME280;10371;49.042;8.002;2023-04-08T01:53:10;100243.50;;;9.05;100.00
20424;BME280;10371;49.042;8.002;2023-04-08T01:54:11;100241.66;;;9.07;100.00
20424;BME280;10371;49.042;8.002;2023-04-08T01:55:11;100239.16;;;9.06;100.00
20424;BME280;10371;49.042;8.002;2023-04-08T01:56:12;100245.06;;;9.08;100.00
20424;BME280;10371;49.042;8.002;2023-04-08T01:57:16;100243.31;;;9.08;100.00
20424;BME280;10371;49.042;8.002;2023-04-08T01:58:20;100244.97;;;9.09;100.00
20424;BME280;10371;49.042;8.002;2023-04-08T01:59:23;100244.16;;;9.09;100.00
20424;BME280;10371;49.042;8.002;2023-04-08T02:00:29;100246.84;;;9.07;100.00
20424;BME280;10371;49.042;8.002;2023-04-08T02:01:30;100244.34;;;9.06;100.00
20424;BME280;10371;49.042;8.002;2023-04-08T02:02:32;100244.34;;;9.06;100.00
20424;BME280;10371;49.042;8.002;2023-04-08T02:03:35;100246.00;;;9.07;100.00
20424;BME280;10371;49.042;8.002;2023-04-08T02:04:36;100250.25;;;9.08;100.00
20424;BME280;10371;49.042;8.002;2023-04-08T02:05:36;100242.69;;;9.05;100.00
20424;BME280;10371;49.042;8.002;2023-04-08T02:06:37;100249.34;;;9.09;100.00
20424;BME280;10371;49.042;8.002;2023-04-08T02:07:37;100246.75;;;9.09;100.00
20424;BME280;10371;49.042;8.002;2023-04-08T02:08:38;100247.66;;;9.08;100.00
20424;BME280;10371;49.042;8.002;2023-04-08T02:09:38;100241.03;;;9.04;100.00
20424;BME280;10371;49.042;8.002;2023-04-08T02:10:38;100247.88;;;9.05;100.00
20424;BME280;10371;49.042;8.002;2023-04-08T02:11:39;100248.19;;;9.00;100.00
20424;BME280;10371;49.042;8.002;2023-04-08T02:12:40;100244.75;;;9.00;100.00
20424;BME280;10371;49.042;8.002;2023-04-08T02:13:41;100247.47;;;8.98;100.00
20424;BME280;10371;49.042;8.002;2023-04-08T02:14:41;100242.28;;;8.98;100.00
20424;BME280;10371;49.042;8.002;2023-04-08T02:15:48;100240.72;;;8.95;100.00
20424;BME280;10371;49.042;8.002;2023-04-08T02:16:54;100244.34;;;8.93;100.00
20424;BME280;10371;49.042;8.002;2023-04-08T02:17:59;100248.78;;;8.91;100.00
20424;BME280;10371;49.042;8.002;2023-04-08T02:19:08;100249.66;;;8.91;100.00
20424;BME280;10371;49.042;8.002;2023-04-08T02:20:18;100253.06;;;8.92;100.00
20424;BME280;10371;49.042;8.002;2023-04-08T02:21:21;100250.38;;;8.93;100.00
20424;BME280;10371;49.042;8.002;2023-04-08T02:23:52;100256.38;;;8.94;100.00
20424;BME280;10371;49.042;8.002;2023-04-08T02:24:54;100252.03;;;8.94;100.00
20424;BME280;10371;49.042;8.002;2023-04-08T02:25:55;100253.50;;;8.99;100.00
20424;BME280;10371;49.042;8.002;2023-04-08T02:26:57;100251.84;;;8.98;100.00
20424;BME280;10371;49.042;8.002;2023-04-08T02:27:58;100252.75;;;8.97;100.00
20424;BME280;10371;49.042;8.002;2023-04-08T02:29:00;100252.25;;;8.91;100.00
20424;BME280;10371;49.042;8.002;2023-04-08T02:30:05;100249.94;;;8.87;100.00
20424;BME280;10371;49.042;8.002;2023-04-08T02:31:11;100251.81;;;8.85;100.00
20424;BME280;10371;49.042;8.002;2023-04-08T02:32:13;100251.59;;;8.88;100.00
20424;BME280;10371;49.042;8.002;2023-04-08T02:33:17;100255.75;;;8.90;100.00
20424;BME280;10371;49.042;8.002;2023-04-08T02:34:19;100255.56;;;8.93;100.00
20424;BME280;10371;49.042;8.002;2023-04-08T02:35:21;100261.56;;;8.94;100.00
20424;BME280;10371;49.042;8.002;2023-04-08T02:36:22;100260.53;;;8.97;100.00
20424;BME280;10371;49.042;8.002;2023-04-08T02:37:23;100257.03;;;8.98;100.00
20424;BME280;10371;49.042;8.002;2023-04-08T02:38:23;100255.25;;;8.98;100.00
20424;BME280;10371;49.042;8.002;2023-04-08T02:39:32;100258.59;;;9.00;100.00
20424;BME280;10371;49.042;8.002;2023-04-08T02:40:32;100258.59;;;9.00;100.00
20424;BME280;10371;49.042;8.002;2023-04-08T02:41:33;100258.59;;;9.00;100.00
20424;BME280;10371;49.042;8.002;2023-04-08T02:42:33;100260.34;;;9.00;100.00
20424;BME280;10371;49.042;8.002;2023-04-08T02:43:33;100258.47;;;9.02;100.00
20424;BME280;10371;49.042;8.002;2023-04-08T02:44:34;100255.88;;;9.02;100.00
20424;BME280;10371;49.042;8.002;2023-04-08T02:45:39;100249.03;;;9.01;100.00
20424;BME280;10371;49.042;8.002;2023-04-08T02:46:40;100263.56;;;9.03;100.00
20424;BME280;10371;49.042;8.002;2023-04-08T02:47:40;100252.38;;;9.03;100.00
20424;BME280;10371;49.042;8.002;2023-04-08T02:48:40;100258.25;;;9.05;100.00
20424;BME280;10371;49.042;8.002;2023-04-08T02:49:41;100252.84;;;9.08;100.00
20424;BME280;10371;49.042;8.002;2023-04-08T02:50:41;100257.97;;;9.09;100.00
20424;BME280;10371;49.042;8.002;2023-04-08T02:51:41;100257.84;;;9.11;100.00
20424;BME280;10371;49.042;8.002;2023-04-08T02:52:42;100250.91;;;9.11;100.00
20424;BME280;10371;49.042;8.002;2023-04-08T02:53:43;100250.25;;;9.08;100.00
20424;BME280;10371;49.042;8.002;2023-04-08T02:54:44;100262.34;;;9.09;100.00
20424;BME280;10371;49.042;8.002;2023-04-08T02:55:44;100261.38;;;9.10;100.00
20424;BME280;10371;49.042;8.002;2023-04-08T02:56:45;100260.56;;;9.09;100.00
20424;BME280;10371;49.042;8.002;2023-04-08T02:57:46;100253.50;;;9.11;100.00
20424;BME280;10371;49.042;8.002;2023-04-08T02:58:46;100261.19;;;9.13;100.00
20424;BME280;10371;49.042;8.002;2023-04-08T02:59:47;100258.56;;;9.13;100.00
20424;BME280;10371;49.042;8.002;2023-04-08T03:00:47;100256.72;;;9.15;100.00
20424;BME280;10371;49.042;8.002;2023-04-08T03:01:47;100250.69;;;9.14;100.00
20424;BME280;10371;49.042;8.002;2023-04-08T03:02:48;100260.88;;;9.17;100.00
20424;BME280;10371;49.042;8.002;2023-04-08T03:03:48;100254.72;;;9.18;100.00
20424;BME280;10371;49.042;8.002;2023-04-08T03:04:48;100250.56;;;9.16;100.00
20424;BME280;10371;49.042;8.002;2023-04-08T03:05:48;100257.44;;;9.17;100.00
20424;BME280;10371;49.042;8.002;2023-04-08T03:06:49;100261.69;;;9.18;100.00
20424;BME280;10371;49.042;8.002;2023-04-08T03:07:49;100257.34;;;9.18;100.00
20424;BME280;10371;49.042;8.002;2023-04-08T03:08:50;100260.75;;;9.19;100.00
20424;BME280;10371;49.042;8.002;2023-04-08T03:09:50;100265.03;;;9.20;100.00
20424;BME280;10371;49.042;8.002;2023-04-08T03:10:50;100259.00;;;9.20;100.00
20424;BME280;10371;49.042;8.002;2023-04-08T03:11:51;100256.28;;;9.21;100.00
20424;BME280;10371;49.042;8.002;2023-04-08T03:12:53;100251.22;;;9.20;100.00
20424;BME280;10371;49.042;8.002;2023-04-08T03:13:54;100263.16;;;9.22;100.00
20424;BME280;10371;49.042;8.002;2023-04-08T03:14:55;100253.69;;;9.21;100.00
20424;BME280;10371;49.042;8.002;2023-04-08T03:15:55;100255.38;;;9.22;100.00
20424;BME280;10371;49.042;8.002;2023-04-08T03:16:55;100260.56;;;9.22;100.00
20424;BME280;10371;49.042;8.002;2023-04-08T03:17:55;100257.03;;;9.23;100.00
20424;BME280;10371;49.042;8.002;2023-04-08T03:18:56;100258.91;;;9.21;100.00
20424;BME280;10371;49.042;8.002;2023-04-08T03:19:56;100255.56;;;9.19;100.00
20424;BME280;10371;49.042;8.002;2023-04-08T03:20:56;100258.16;;;9.19;100.00
20424;BME280;10371;49.042;8.002;2023-04-08T03:21:57;100249.53;;;9.18;100.00
20424;BME280;10371;49.042;8.002;2023-04-08T03:22:57;100253.91;;;9.18;100.00
20424;BME280;10371;49.042;8.002;2023-04-08T03:23:57;100256.50;;;9.18;100.00
20424;BME280;10371;49.042;8.002;2023-04-08T03:24:57;100259.09;;;9.18;100.00
20424;BME280;10371;49.042;8.002;2023-04-08T03:25:58;100254.72;;;9.18;100.00
20424;BME280;10371;49.042;8.002;2023-04-08T03:26:58;100255.78;;;9.16;100.00
20424;BME280;10371;49.042;8.002;2023-04-08T03:27:59;100248.84;;;9.16;100.00
20424;BME280;10371;49.042;8.002;2023-04-08T03:28:59;100252.25;;;9.17;100.00
20424;BME280;10371;49.042;8.002;2023-04-08T03:30:00;100252.25;;;9.17;100.00
20424;BME280;10371;49.042;8.002;2023-04-08T03:31:02;100251.44;;;9.16;100.00
20424;BME280;10371;49.042;8.002;2023-04-08T03:32:03;100263.34;;;9.19;100.00
20424;BME280;10371;49.042;8.002;2023-04-08T03:33:03;100259.09;;;9.18;100.00
20424;BME280;10371;49.042;8.002;2023-04-08T03:34:06;100263.47;;;9.17;100.00
20424;BME280;10371;49.042;8.002;2023-04-08T03:35:07;100260.75;;;9.19;100.00
20424;BME280;10371;49.042;8.002;2023-04-08T03:36:08;100260.75;;;9.19;100.00
20424;BME280;10371;49.042;8.002;2023-04-08T03:37:09;100265.94;;;9.19;100.00
20424;BME280;10371;49.042;8.002;2023-04-08T03:38:09;100265.03;;;9.20;100.00
20424;BME280;10371;49.042;8.002;2023-04-08T03:39:09;100262.44;;;9.20;100.00
20424;BME280;10371;49.042;8.002;2023-04-08T03:40:10;100258.06;;;9.21;100.00
20424;BME280;10371;49.042;8.002;2023-04-08T03:41:11;100259.84;;;9.20;100.00
20424;BME280;10371;49.042;8.002;2023-04-08T03:42:11;100263.25;;;9.21;100.00
20424;BME280;10371;49.042;8.002;2023-04-08T03:43:12;100259.84;;;9.20;100.00
20424;BME280;10371;49.042;8.002;2023-04-08T03:44:13;100260.75;;;9.19;100.00
20424;BME280;10371;49.042;8.002;2023-04-08T03:45:13;100267.63;;;9.20;100.00
20424;BME280;10371;49.042;8.002;2023-04-08T03:46:13;100269.41;;;9.20;100.00
20424;BME280;10371;49.042;8.002;2023-04-08T03:47:14;100265.84;;;9.21;100.00
20424;BME280;10371;49.042;8.002;2023-04-08T03:48:15;100258.91;;;9.21;100.00
20424;BME280;10371;49.042;8.002;2023-04-08T03:49:15;100265.94;;;9.19;100.00
20424;BME280;10371;49.042;8.002;2023-04-08T03:50:15;100262.44;;;9.20;100.00
20424;BME280;10371;49.042;8.002;2023-04-08T03:51:16;100271.06;;;9.21;100.00
20424;BME280;10371;49.042;8.002;2023-04-08T03:52:16;100268.53;;;9.19;100.00
20424;BME280;10371;49.042;8.002;2023-04-08T03:53:16;100265.13;;;9.18;100.00
20424;BME280;10371;49.042;8.002;2023-04-08T03:54:16;100264.41;;;9.16;100.00
20424;BME280;10371;49.042;8.002;2023-04-08T03:55:17;100268.66;;;9.17;100.00
20424;BME280;10371;49.042;8.002;2023-04-08T03:56:17;100265.13;;;9.18;100.00
20424;BME280;10371;49.042;8.002;2023-04-08T03:57:17;100267.63;;;9.20;100.00
20424;BME280;10371;49.042;8.002;2023-04-08T03:58:17;100268.47;;;9.21;100.00
20424;BME280;10371;49.042;8.002;2023-04-08T03:59:18;100262.44;;;9.20;100.00
20424;BME280;10371;49.042;8.002;2023-04-08T04:00:18;100267.50;;;9.22;100.00
20424;BME280;10371;49.042;8.002;2023-04-08T04:01:18;100270.09;;;9.22;100.00
20424;BME280;10371;49.042;8.002;2023-04-08T04:02:19;100265.03;;;9.20;100.00
20424;BME280;10371;49.042;8.002;2023-04-08T04:03:19;100265.03;;;9.20;100.00
20424;BME280;10371;49.042;8.002;2023-04-08T04:04:20;100265.03;;;9.20;100.00
20424;BME280;10371;49.042;8.002;2023-04-08T04:05:21;100263.47;;;9.05;100.00
20424;BME280;10371;49.042;8.002;2023-04-08T04:06:21;100269.06;;;8.99;100.00
20424;BME280;10371;49.042;8.002;2023-04-08T04:07:22;100271.66;;;8.99;100.00
20424;BME280;10371;49.042;8.002;2023-04-08T04:08:22;100270.53;;;9.03;100.00
20424;BME280;10371;49.042;8.002;2023-04-08T04:09:22;100272.19;;;9.04;100.00
20424;BME280;10371;49.042;8.002;2023-04-08T04:10:23;100272.06;;;9.05;100.00
20424;BME280;10371;49.042;8.002;2023-04-08T04:11:23;100261.81;;;9.04;100.00
20424;BME280;10371;49.042;8.002;2023-04-08T04:12:23;100263.25;;;9.08;100.00
20424;BME280;10371;49.042;8.002;2023-04-08T04:13:24;100263.25;;;9.08;100.00
20424;BME280;10371;49.042;8.002;2023-04-08T04:14:24;100264.09;;;9.08;100.00
20424;BME280;10371;49.042;8.002;2023-04-08T04:15:24;100265.97;;;9.06;100.00
20424;BME280;10371;49.042;8.002;2023-04-08T04:16:25;100266.69;;;9.08;100.00
20424;BME280;10371;49.042;8.002;2023-04-08T04:17:25;100268.44;;;9.08;100.00
20424;BME280;10371;49.042;8.002;2023-04-08T04:18:26;100267.53;;;9.09;100.00
20424;BME280;10371;49.042;8.002;2023-04-08T04:19:29;100269.28;;;9.08;100.00
20424;BME280;10371;49.042;8.002;2023-04-08T04:20:30;100263.47;;;9.05;100.00
20424;BME280;10371;49.042;8.002;2023-04-08T04:21:30;100270.34;;;9.06;100.00
20424;BME280;10371;49.042;8.002;2023-04-08T04:22:30;100267.63;;;9.07;100.00
20424;BME280;10371;49.042;8.002;2023-04-08T04:23:31;100270.34;;;9.06;100.00
20424;BME280;10371;49.042;8.002;2023-04-08T04:24:31;100264.28;;;9.05;100.00
20424;BME280;10371;49.042;8.002;2023-04-08T04:25:31;100267.00;;;9.04;100.00
20424;BME280;10371;49.042;8.002;2023-04-08T04:26:31;100263.56;;;9.03;100.00
20424;BME280;10371;49.042;8.002;2023-04-08T04:27:32;100267.00;;;9.04;100.00
20424;BME280;10371;49.042;8.002;2023-04-08T04:28:32;100262.63;;;9.04;100.00
20424;BME280;10371;49.042;8.002;2023-04-08T04:29:32;100265.34;;;9.03;100.00
20424;BME280;10371;49.042;8.002;2023-04-08T04:30:35;100268.03;;;9.01;100.00
20424;BME280;10371;49.042;8.002;2023-04-08T04:31:36;100266.25;;;9.02;100.00
20424;BME280;10371;49.042;8.002;2023-04-08T04:32:36;100269.81;;;9.01;100.00
20424;BME280;10371;49.042;8.002;2023-04-08T04:33:36;100264.59;;;9.01;100.00
20424;BME280;10371;49.042;8.002;2023-04-08T04:34:36;100275.09;;;8.99;100.00
20424;BME280;10371;49.042;8.002;2023-04-08T04:35:38;100275.09;;;8.99;100.00
20424;BME280;10371;49.042;8.002;2023-04-08T04:36:39;100265.72;;;8.97;100.00
20424;BME280;10371;49.042;8.002;2023-04-08T04:37:39;100265.72;;;8.97;100.00
20424;BME280;10371;49.042;8.002;2023-04-08T04:38:39;100268.25;;;8.98;100.00
20424;BME280;10371;49.042;8.002;2023-04-08T04:39:40;100275.22;;;8.98;100.00
20424;BME280;10371;49.042;8.002;2023-04-08T04:40:40;100276.97;;;8.97;100.00
20424;BME280;10371;49.042;8.002;2023-04-08T04:41:40;100275.28;;;8.96;100.00
20424;BME280;10371;49.042;8.002;2023-04-08T04:42:41;100272.81;;;8.94;100.00
20424;BME280;10371;49.042;8.002;2023-04-08T04:43:42;100275.41;;;8.94;100.00
20424;BME280;10371;49.042;8.002;2023-04-08T04:44:42;100276.44;;;8.92;100.00
20424;BME280;10371;49.042;8.002;2023-04-08T04:45:43;100275.38;;;8.82;100.00
20424;BME280;10371;49.042;8.002;2023-04-08T04:46:44;100275.69;;;8.77;100.00
20424;BME280;10371;49.042;8.002;2023-04-08T04:47:44;100272.38;;;8.75;100.00
20424;BME280;10371;49.042;8.002;2023-04-08T04:48:44;100270.47;;;8.77;100.00
20424;BME280;10371;49.042;8.002;2023-04-08T04:49:45;100275.69;;;8.77;100.00
20424;BME280;10371;49.042;8.002;2023-04-08T04:50:56;100281.72;;;8.78;100.00
20424;BME280;10371;49.042;8.002;2023-04-08T04:51:57;100277.56;;;8.75;100.00
20424;BME280;10371;49.042;8.002;2023-04-08T04:52:57;100275.16;;;8.72;100.00
20424;BME280;10371;49.042;8.002;2023-04-08T04:53:57;100282.84;;;8.73;100.00
20424;BME280;10371;49.042;8.002;2023-04-08T04:54:58;100274.22;;;8.73;100.00
20424;BME280;10371;49.042;8.002;2023-04-08T04:55:58;100281.06;;;8.74;100.00
20424;BME280;10371;49.042;8.002;2023-04-08T04:57:00;100284.41;;;8.76;100.00
20424;BME280;10371;49.042;8.002;2023-04-08T04:58:01;100277.56;;;8.75;100.00
20424;BME280;10371;49.042;8.002;2023-04-08T04:59:01;100282.75;;;8.75;100.00
20424;BME280;10371;49.042;8.002;2023-04-08T05:00:02;100277.56;;;8.75;100.00
20424;BME280;10371;49.042;8.002;2023-04-08T05:01:02;100284.41;;;8.76;100.00
20424;BME280;10371;49.042;8.002;2023-04-08T05:02:02;100291.25;;;8.77;100.00
20424;BME280;10371;49.042;8.002;2023-04-08T05:03:03;100286.06;;;8.77;100.00
20424;BME280;10371;49.042;8.002;2023-04-08T05:04:03;100290.41;;;8.77;100.00
20424;BME280;10371;49.042;8.002;2023-04-08T05:05:04;100289.50;;;8.78;100.00
20424;BME280;10371;49.042;8.002;2023-04-08T05:06:04;100286.06;;;8.77;100.00
20424;BME280;10371;49.042;8.002;2023-04-08T05:07:05;100293.13;;;8.75;100.00
20424;BME280;10371;49.042;8.002;2023-04-08T05:08:05;100296.56;;;8.76;100.00
20424;BME280;10371;49.042;8.002;2023-04-08T05:09:06;100294.78;;;8.76;100.00
20424;BME280;10371;49.042;8.002;2023-04-08T05:10:07;100294.06;;;8.74;100.00
20424;BME280;10371;49.042;8.002;2023-04-08T05:11:10;100296.66;;;8.74;100.00
20424;BME280;10371;49.042;8.002;2023-04-08T05:12:10;100300.19;;;8.73;100.00
20424;BME280;10371;49.042;8.002;2023-04-08T05:13:11;100301.84;;;8.74;100.00
20424;BME280;10371;49.042;8.002;2023-04-08T05:14:12;100297.47;;;8.75;100.00
20424;BME280;10371;49.042;8.002;2023-04-08T05:15:12;100295.63;;;8.77;100.00
20424;BME280;10371;49.042;8.002;2023-04-08T05:16:12;100304.09;;;8.66;100.00
20424;BME280;10371;49.042;8.002;2023-04-08T05:17:13;100302.09;;;8.57;100.00
20424;BME280;10371;49.042;8.002;2023-04-08T05:18:13;100307.78;;;8.49;100.00
20424;BME280;10371;49.042;8.002;2023-04-08T05:19:13;100306.22;;;8.46;100.00
20424;BME280;10371;49.042;8.002;2023-04-08T05:20:14;100305.19;;;8.49;100.00
20424;BME280;10371;49.042;8.002;2023-04-08T05:21:14;100302.31;;;8.54;100.00
20424;BME280;10371;49.042;8.002;2023-04-08T05:22:15;100304.63;;;8.58;100.00
20424;BME280;10371;49.042;8.002;2023-04-08T05:23:15;100312.28;;;8.60;100.00
20424;BME280;10371;49.042;8.002;2023-04-08T05:24:16;100307.00;;;8.61;100.00